Archival Weather

Chicago O'Hare International

Chicago, Illinois (KORD)

Report from: Saturday, November 5, 2022 8:51 PM CDT
Current time: Saturday, March 2, 2024 4:55 AM CST

Current weather – Weather history – Daily summaries
Weather forecast

Temperature7.8°C (46.0°F)
Wind chill4.2°C (39.6°F)
Dew point3.9°C (39.0°F)
Winds 13 kts (6.7 m/s, 15 mph) South-Southwest (210°)
Wind gusts 20 kts (10.3 m/s, 23 mph)
Peak wind 28 kts (14.4 m/s, 32.2 mph) Southwest (220°) at 01:26
Visibility10 mi. (16.1 km)
Clouds Few clouds 2,500 ft. (762 m)
Altimeter29.69 in.Hg (1005 mB)
Relative humidity76 %
Density altitude-482 ft. (-147 m)
Sea-level pressure100.6 kPa (1006 mB, 29.69 in.Hg)
Remarks Automated weather observing station with precipitation discriminator
Flight conditions Visual Meteorological Conditions
Raw dataKORD 060151Z 21013G20KT 10SM FEW025 08/04 A2969 RMK AO2 PK WND 22028/0126 SLP055 T00780039
An error has occurred. This application may no longer respond until reloaded. Reload 🗙